sensor_id;sensor_type;location;lat;lon;timestamp;P1;durP1;ratioP1;P2;durP2;ratioP2
65998;SDS011;52766;56.008;37.440;2023-08-07T00:00:24;12.35;;;8.25;;
65998;SDS011;52766;56.008;37.440;2023-08-07T00:03:04;11.77;;;7.65;;
65998;SDS011;52766;56.008;37.440;2023-08-07T00:05:35;11.98;;;8.18;;
65998;SDS011;52766;56.008;37.440;2023-08-07T00:08:03;13.55;;;8.00;;
65998;SDS011;52766;56.008;37.440;2023-08-07T00:13:09;13.38;;;8.77;;
65998;SDS011;52766;56.008;37.440;2023-08-07T00:15:45;12.55;;;8.68;;
65998;SDS011;52766;56.008;37.440;2023-08-07T00:18:12;15.20;;;8.60;;
65998;SDS011;52766;56.008;37.440;2023-08-07T00:20:40;12.93;;;8.35;;
65998;SDS011;52766;56.008;37.440;2023-08-07T00:23:10;10.57;;;8.15;;
65998;SDS011;52766;56.008;37.440;2023-08-07T00:25:40;13.20;;;8.07;;
65998;SDS011;52766;56.008;37.440;2023-08-07T00:28:08;11.38;;;7.55;;
65998;SDS011;52766;56.008;37.440;2023-08-07T00:30:36;11.13;;;7.60;;
65998;SDS011;52766;56.008;37.440;2023-08-07T00:33:04;11.60;;;8.07;;
65998;SDS011;52766;56.008;37.440;2023-08-07T00:35:34;11.45;;;7.72;;
65998;SDS011;52766;56.008;37.440;2023-08-07T00:38:21;10.38;;;7.90;;
65998;SDS011;52766;56.008;37.440;2023-08-07T00:40:50;12.20;;;8.18;;
65998;SDS011;52766;56.008;37.440;2023-08-07T00:43:52;12.13;;;8.27;;
65998;SDS011;52766;56.008;37.440;2023-08-07T00:48:47;12.30;;;7.90;;
65998;SDS011;52766;56.008;37.440;2023-08-07T00:51:18;14.43;;;7.85;;
65998;SDS011;52766;56.008;37.440;2023-08-07T00:53:45;11.07;;;7.90;;
65998;SDS011;52766;56.008;37.440;2023-08-07T00:56:13;15.50;;;8.48;;
65998;SDS011;52766;56.008;37.440;2023-08-07T00:58:42;11.10;;;7.95;;
65998;SDS011;52766;56.008;37.440;2023-08-07T01:01:16;14.02;;;8.57;;
65998;SDS011;52766;56.008;37.440;2023-08-07T01:03:48;12.30;;;8.45;;
65998;SDS011;52766;56.008;37.440;2023-08-07T01:09:19;12.82;;;8.50;;
65998;SDS011;52766;56.008;37.440;2023-08-07T01:11:54;13.43;;;8.00;;
65998;SDS011;52766;56.008;37.440;2023-08-07T01:17:06;12.52;;;8.10;;
65998;SDS011;52766;56.008;37.440;2023-08-07T01:19:36;13.95;;;8.02;;
65998;SDS011;52766;56.008;37.440;2023-08-07T01:24:43;11.68;;;8.50;;
65998;SDS011;52766;56.008;37.440;2023-08-07T01:32:56;9.20;;;7.75;;
65998;SDS011;52766;56.008;37.440;2023-08-07T01:35:49;11.75;;;8.07;;
65998;SDS011;52766;56.008;37.440;2023-08-07T01:38:24;10.63;;;8.18;;
65998;SDS011;52766;56.008;37.440;2023-08-07T01:40:55;10.30;;;7.40;;
65998;SDS011;52766;56.008;37.440;2023-08-07T01:48:49;11.65;;;7.95;;
65998;SDS011;52766;56.008;37.440;2023-08-07T01:51:17;11.77;;;7.82;;
65998;SDS011;52766;56.008;37.440;2023-08-07T01:53:45;13.52;;;7.57;;
65998;SDS011;52766;56.008;37.440;2023-08-07T01:56:16;10.05;;;7.40;;
65998;SDS011;52766;56.008;37.440;2023-08-07T01:58:49;10.82;;;7.38;;
65998;SDS011;52766;56.008;37.440;2023-08-07T02:01:21;12.60;;;7.95;;
65998;SDS011;52766;56.008;37.440;2023-08-07T02:04:02;10.90;;;7.63;;
65998;SDS011;52766;56.008;37.440;2023-08-07T02:06:31;14.75;;;7.93;;
65998;SDS011;52766;56.008;37.440;2023-08-07T02:08:59;10.10;;;7.68;;
65998;SDS011;52766;56.008;37.440;2023-08-07T02:11:31;11.02;;;7.57;;
65998;SDS011;52766;56.008;37.440;2023-08-07T02:13:58;15.20;;;7.80;;
65998;SDS011;52766;56.008;37.440;2023-08-07T02:16:30;10.60;;;7.53;;
65998;SDS011;52766;56.008;37.440;2023-08-07T02:18:59;12.05;;;7.55;;
65998;SDS011;52766;56.008;37.440;2023-08-07T02:21:47;11.90;;;7.82;;
65998;SDS011;52766;56.008;37.440;2023-08-07T02:24:17;10.52;;;7.68;;
65998;SDS011;52766;56.008;37.440;2023-08-07T02:29:42;10.80;;;7.65;;
65998;SDS011;52766;56.008;37.440;2023-08-07T02:32:43;19.17;;;7.80;;
65998;SDS011;52766;56.008;37.440;2023-08-07T02:35:13;11.02;;;7.75;;
65998;SDS011;52766;56.008;37.440;2023-08-07T02:37:48;11.70;;;8.32;;
65998;SDS011;52766;56.008;37.440;2023-08-07T02:43:41;12.65;;;9.07;;
65998;SDS011;52766;56.008;37.440;2023-08-07T02:46:13;11.15;;;8.18;;
65998;SDS011;52766;56.008;37.440;2023-08-07T02:48:57;11.95;;;8.63;;
65998;SDS011;52766;56.008;37.440;2023-08-07T02:51:44;11.32;;;8.57;;
65998;SDS011;52766;56.008;37.440;2023-08-07T02:54:30;12.65;;;9.13;;
65998;SDS011;52766;56.008;37.440;2023-08-07T02:57:02;13.77;;;8.52;;
65998;SDS011;52766;56.008;37.440;2023-08-07T03:02:31;12.50;;;8.57;;
65998;SDS011;52766;56.008;37.440;2023-08-07T03:05:25;14.07;;;8.85;;
65998;SDS011;52766;56.008;37.440;2023-08-07T03:07:57;10.95;;;8.93;;
65998;SDS011;52766;56.008;37.440;2023-08-07T03:13:39;14.23;;;9.00;;
65998;SDS011;52766;56.008;37.440;2023-08-07T03:16:14;11.90;;;8.05;;
65998;SDS011;52766;56.008;37.440;2023-08-07T03:18:42;12.73;;;8.48;;
65998;SDS011;52766;56.008;37.440;2023-08-07T03:21:11;10.57;;;8.32;;
65998;SDS011;52766;56.008;37.440;2023-08-07T03:23:40;12.15;;;8.02;;
65998;SDS011;52766;56.008;37.440;2023-08-07T03:26:12;11.07;;;7.65;;
65998;SDS011;52766;56.008;37.440;2023-08-07T03:28:43;12.43;;;8.13;;
65998;SDS011;52766;56.008;37.440;2023-08-07T03:31:19;11.35;;;8.15;;
65998;SDS011;52766;56.008;37.440;2023-08-07T03:33:56;12.73;;;8.18;;
65998;SDS011;52766;56.008;37.440;2023-08-07T03:36:31;12.13;;;7.60;;
65998;SDS011;52766;56.008;37.440;2023-08-07T03:38:58;10.65;;;7.82;;
65998;SDS011;52766;56.008;37.440;2023-08-07T03:41:36;12.10;;;7.90;;
65998;SDS011;52766;56.008;37.440;2023-08-07T03:44:04;9.52;;;7.60;;
65998;SDS011;52766;56.008;37.440;2023-08-07T03:49:39;13.93;;;8.27;;
65998;SDS011;52766;56.008;37.440;2023-08-07T03:52:13;11.18;;;7.75;;
65998;SDS011;52766;56.008;37.440;2023-08-07T03:58:15;9.65;;;7.38;;
65998;SDS011;52766;56.008;37.440;2023-08-07T04:00:55;12.05;;;7.38;;
65998;SDS011;52766;56.008;37.440;2023-08-07T04:04:23;11.18;;;6.90;;
65998;SDS011;52766;56.008;37.440;2023-08-07T04:07:24;11.73;;;6.97;;
65998;SDS011;52766;56.008;37.440;2023-08-07T04:10:16;9.40;;;6.63;;
65998;SDS011;52766;56.008;37.440;2023-08-07T04:13:31;9.63;;;7.43;;
65998;SDS011;52766;56.008;37.440;2023-08-07T04:16:18;11.18;;;6.70;;
65998;SDS011;52766;56.008;37.440;2023-08-07T04:18:56;9.07;;;6.38;;
65998;SDS011;52766;56.008;37.440;2023-08-07T04:21:47;11.85;;;6.47;;
65998;SDS011;52766;56.008;37.440;2023-08-07T04:24:49;10.07;;;6.18;;
65998;SDS011;52766;56.008;37.440;2023-08-07T04:27:41;8.80;;;6.13;;
65998;SDS011;52766;56.008;37.440;2023-08-07T04:33:41;8.52;;;5.78;;
65998;SDS011;52766;56.008;37.440;2023-08-07T04:36:22;9.02;;;5.60;;
65998;SDS011;52766;56.008;37.440;2023-08-07T04:42:46;9.27;;;6.25;;
65998;SDS011;52766;56.008;37.440;2023-08-07T04:45:17;8.75;;;6.03;;
65998;SDS011;52766;56.008;37.440;2023-08-07T04:47:49;10.98;;;6.07;;
65998;SDS011;52766;56.008;37.440;2023-08-07T04:50:38;12.40;;;6.65;;
65998;SDS011;52766;56.008;37.440;2023-08-07T04:53:28;8.98;;;6.57;;
65998;SDS011;52766;56.008;37.440;2023-08-07T05:00:00;8.15;;;5.57;;
65998;SDS011;52766;56.008;37.440;2023-08-07T05:03:27;8.48;;;5.95;;
65998;SDS011;52766;56.008;37.440;2023-08-07T05:12:34;9.27;;;4.97;;
65998;SDS011;52766;56.008;37.440;2023-08-07T05:15:14;7.35;;;5.40;;
65998;SDS011;52766;56.008;37.440;2023-08-07T05:25:15;9.15;;;5.53;;
65998;SDS011;52766;56.008;37.440;2023-08-07T05:29:16;9.45;;;4.80;;
65998;SDS011;52766;56.008;37.440;2023-08-07T05:32:04;7.80;;;5.07;;
65998;SDS011;52766;56.008;37.440;2023-08-07T05:35:19;9.70;;;4.78;;
65998;SDS011;52766;56.008;37.440;2023-08-07T05:41:23;7.47;;;4.30;;
65998;SDS011;52766;56.008;37.440;2023-08-07T05:44:19;7.05;;;4.57;;
65998;SDS011;52766;56.008;37.440;2023-08-07T05:47:01;7.85;;;4.55;;
65998;SDS011;52766;56.008;37.440;2023-08-07T05:53:27;8.77;;;4.22;;
65998;SDS011;52766;56.008;37.440;2023-08-07T05:55:56;7.50;;;4.05;;
65998;SDS011;52766;56.008;37.440;2023-08-07T06:01:32;7.20;;;3.83;;
65998;SDS011;52766;56.008;37.440;2023-08-07T06:04:20;8.90;;;4.22;;
65998;SDS011;52766;56.008;37.440;2023-08-07T06:07:22;6.25;;;4.00;;
65998;SDS011;52766;56.008;37.440;2023-08-07T06:12:43;6.25;;;3.83;;
65998;SDS011;52766;56.008;37.440;2023-08-07T06:21:23;6.85;;;3.60;;
65998;SDS011;52766;56.008;37.440;2023-08-07T06:23:53;10.52;;;4.00;;
65998;SDS011;52766;56.008;37.440;2023-08-07T06:26:36;6.10;;;4.22;;
65998;SDS011;52766;56.008;37.440;2023-08-07T06:29:31;5.15;;;3.38;;
65998;SDS011;52766;56.008;37.440;2023-08-07T06:41:37;6.50;;;4.00;;
65998;SDS011;52766;56.008;37.440;2023-08-07T06:44:51;8.82;;;4.07;;
65998;SDS011;52766;56.008;37.440;2023-08-07T06:47:31;5.97;;;3.50;;
65998;SDS011;52766;56.008;37.440;2023-08-07T06:50:13;4.97;;;3.35;;
65998;SDS011;52766;56.008;37.440;2023-08-07T06:56:14;6.78;;;3.85;;
65998;SDS011;52766;56.008;37.440;2023-08-07T06:58:50;10.23;;;3.80;;
65998;SDS011;52766;56.008;37.440;2023-08-07T07:04:34;13.35;;;2.97;;
65998;SDS011;52766;56.008;37.440;2023-08-07T07:07:09;6.85;;;3.28;;
65998;SDS011;52766;56.008;37.440;2023-08-07T07:09:44;7.38;;;3.13;;
65998;SDS011;52766;56.008;37.440;2023-08-07T07:12:31;10.38;;;5.38;;
65998;SDS011;52766;56.008;37.440;2023-08-07T07:15:05;12.25;;;3.95;;
65998;SDS011;52766;56.008;37.440;2023-08-07T07:17:52;4.10;;;2.58;;
65998;SDS011;52766;56.008;37.440;2023-08-07T07:20:30;9.07;;;3.13;;
65998;SDS011;52766;56.008;37.440;2023-08-07T07:26:27;8.00;;;3.10;;
65998;SDS011;52766;56.008;37.440;2023-08-07T07:29:04;6.05;;;3.10;;
65998;SDS011;52766;56.008;37.440;2023-08-07T07:35:21;6.13;;;2.97;;
65998;SDS011;52766;56.008;37.440;2023-08-07T07:37:52;8.48;;;3.20;;
65998;SDS011;52766;56.008;37.440;2023-08-07T07:40:30;7.05;;;3.28;;
65998;SDS011;52766;56.008;37.440;2023-08-07T07:43:09;5.35;;;2.95;;
65998;SDS011;52766;56.008;37.440;2023-08-07T07:45:45;6.22;;;2.75;;
65998;SDS011;52766;56.008;37.440;2023-08-07T07:48:19;7.15;;;3.10;;
65998;SDS011;52766;56.008;37.440;2023-08-07T07:50:51;6.72;;;3.08;;
65998;SDS011;52766;56.008;37.440;2023-08-07T07:53:40;5.47;;;2.95;;
65998;SDS011;52766;56.008;37.440;2023-08-07T07:56:32;6.55;;;3.10;;
65998;SDS011;52766;56.008;37.440;2023-08-07T07:59:02;5.93;;;2.95;;
65998;SDS011;52766;56.008;37.440;2023-08-07T08:05:03;4.50;;;3.03;;
65998;SDS011;52766;56.008;37.440;2023-08-07T08:10:44;6.45;;;3.60;;
65998;SDS011;52766;56.008;37.440;2023-08-07T08:13:15;7.63;;;3.33;;
65998;SDS011;52766;56.008;37.440;2023-08-07T08:15:51;9.35;;;2.65;;
65998;SDS011;52766;56.008;37.440;2023-08-07T08:18:37;5.55;;;2.72;;
65998;SDS011;52766;56.008;37.440;2023-08-07T08:21:07;5.32;;;2.42;;
65998;SDS011;52766;56.008;37.440;2023-08-07T08:33:11;5.50;;;2.85;;
65998;SDS011;52766;56.008;37.440;2023-08-07T08:36:05;5.07;;;2.60;;
65998;SDS011;52766;56.008;37.440;2023-08-07T08:41:53;4.57;;;2.67;;
65998;SDS011;52766;56.008;37.440;2023-08-07T08:51:11;7.15;;;2.72;;
65998;SDS011;52766;56.008;37.440;2023-08-07T09:01:19;6.05;;;2.75;;
65998;SDS011;52766;56.008;37.440;2023-08-07T09:04:00;6.40;;;3.10;;
65998;SDS011;52766;56.008;37.440;2023-08-07T09:06:58;6.03;;;3.17;;
65998;SDS011;52766;56.008;37.440;2023-08-07T09:13:31;5.70;;;3.53;;
65998;SDS011;52766;56.008;37.440;2023-08-07T09:22:51;5.82;;;3.25;;
65998;SDS011;52766;56.008;37.440;2023-08-07T09:42:31;5.65;;;2.75;;
65998;SDS011;52766;56.008;37.440;2023-08-07T09:45:28;5.45;;;3.13;;
65998;SDS011;52766;56.008;37.440;2023-08-07T09:55:13;4.43;;;2.60;;
65998;SDS011;52766;56.008;37.440;2023-08-07T10:17:28;6.78;;;2.67;;
65998;SDS011;52766;56.008;37.440;2023-08-07T10:23:22;9.45;;;2.97;;
65998;SDS011;52766;56.008;37.440;2023-08-07T10:26:57;6.18;;;3.00;;
65998;SDS011;52766;56.008;37.440;2023-08-07T10:30:04;4.85;;;2.88;;
65998;SDS011;52766;56.008;37.440;2023-08-07T10:32:44;5.25;;;2.60;;
65998;SDS011;52766;56.008;37.440;2023-08-07T10:54:06;3.88;;;2.65;;
65998;SDS011;52766;56.008;37.440;2023-08-07T11:03:10;5.97;;;2.78;;
65998;SDS011;52766;56.008;37.440;2023-08-07T11:06:08;5.00;;;2.97;;
65998;SDS011;52766;56.008;37.440;2023-08-07T11:09:33;4.95;;;2.45;;
65998;SDS011;52766;56.008;37.440;2023-08-07T11:12:38;9.10;;;2.95;;
65998;SDS011;52766;56.008;37.440;2023-08-07T11:15:14;4.85;;;2.80;;
65998;SDS011;52766;56.008;37.440;2023-08-07T11:24:50;7.25;;;2.65;;
65998;SDS011;52766;56.008;37.440;2023-08-07T11:28:01;7.15;;;3.17;;
65998;SDS011;52766;56.008;37.440;2023-08-07T11:30:49;3.80;;;2.65;;
65998;SDS011;52766;56.008;37.440;2023-08-07T11:36:55;4.82;;;2.75;;
65998;SDS011;52766;56.008;37.440;2023-08-07T11:39:59;7.45;;;3.10;;
65998;SDS011;52766;56.008;37.440;2023-08-07T11:43:06;5.05;;;3.30;;
65998;SDS011;52766;56.008;37.440;2023-08-07T11:46:16;6.00;;;2.47;;
65998;SDS011;52766;56.008;37.440;2023-08-07T11:52:35;4.10;;;2.38;;
65998;SDS011;52766;56.008;37.440;2023-08-07T12:06:24;6.43;;;2.88;;
65998;SDS011;52766;56.008;37.440;2023-08-07T12:09:06;5.10;;;2.50;;
65998;SDS011;52766;56.008;37.440;2023-08-07T12:15:38;6.63;;;2.90;;
65998;SDS011;52766;56.008;37.440;2023-08-07T12:18:53;4.28;;;2.30;;
65998;SDS011;52766;56.008;37.440;2023-08-07T12:22:46;4.30;;;2.58;;
65998;SDS011;52766;56.008;37.440;2023-08-07T12:29:02;7.95;;;3.20;;
65998;SDS011;52766;56.008;37.440;2023-08-07T12:31:59;5.18;;;2.90;;
65998;SDS011;52766;56.008;37.440;2023-08-07T12:34:38;5.45;;;2.85;;
65998;SDS011;52766;56.008;37.440;2023-08-07T12:37:22;5.68;;;2.70;;
65998;SDS011;52766;56.008;37.440;2023-08-07T12:46:21;5.90;;;2.75;;
65998;SDS011;52766;56.008;37.440;2023-08-07T12:58:24;6.95;;;3.10;;
65998;SDS011;52766;56.008;37.440;2023-08-07T13:00:58;6.45;;;3.00;;
65998;SDS011;52766;56.008;37.440;2023-08-07T13:04:41;5.45;;;3.00;;
65998;SDS011;52766;56.008;37.440;2023-08-07T13:07:15;5.88;;;2.97;;
65998;SDS011;52766;56.008;37.440;2023-08-07T13:09:59;9.02;;;3.13;;
65998;SDS011;52766;56.008;37.440;2023-08-07T13:12:37;4.70;;;3.08;;
65998;SDS011;52766;56.008;37.440;2023-08-07T13:18:10;5.25;;;2.80;;
65998;SDS011;52766;56.008;37.440;2023-08-07T13:21:00;7.57;;;2.88;;
65998;SDS011;52766;56.008;37.440;2023-08-07T13:24:09;9.52;;;3.65;;
65998;SDS011;52766;56.008;37.440;2023-08-07T13:27:11;5.80;;;3.00;;
65998;SDS011;52766;56.008;37.440;2023-08-07T13:30:25;6.25;;;3.22;;
65998;SDS011;52766;56.008;37.440;2023-08-07T13:33:01;6.60;;;2.92;;
65998;SDS011;52766;56.008;37.440;2023-08-07T13:38:47;7.50;;;3.03;;
65998;SDS011;52766;56.008;37.440;2023-08-07T13:44:16;7.30;;;3.05;;
65998;SDS011;52766;56.008;37.440;2023-08-07T13:58:08;6.22;;;3.33;;
65998;SDS011;52766;56.008;37.440;2023-08-07T14:01:11;4.97;;;3.40;;
65998;SDS011;52766;56.008;37.440;2023-08-07T14:11:00;8.73;;;4.15;;
65998;SDS011;52766;56.008;37.440;2023-08-07T14:29:54;6.72;;;3.70;;
65998;SDS011;52766;56.008;37.440;2023-08-07T14:35:33;6.15;;;3.65;;
65998;SDS011;52766;56.008;37.440;2023-08-07T14:38:06;5.25;;;3.78;;
65998;SDS011;52766;56.008;37.440;2023-08-07T14:47:17;8.20;;;3.85;;
65998;SDS011;52766;56.008;37.440;2023-08-07T14:50:06;5.95;;;3.78;;
65998;SDS011;52766;56.008;37.440;2023-08-07T14:53:00;7.47;;;3.80;;
65998;SDS011;52766;56.008;37.440;2023-08-07T14:55:32;5.93;;;3.25;;
65998;SDS011;52766;56.008;37.440;2023-08-07T14:59:04;7.55;;;3.53;;
65998;SDS011;52766;56.008;37.440;2023-08-07T15:09:54;5.50;;;3.78;;
65998;SDS011;52766;56.008;37.440;2023-08-07T15:12:40;4.78;;;3.25;;
65998;SDS011;52766;56.008;37.440;2023-08-07T15:18:27;7.82;;;3.33;;
65998;SDS011;52766;56.008;37.440;2023-08-07T15:28:28;5.65;;;3.55;;
65998;SDS011;52766;56.008;37.440;2023-08-07T15:34:41;8.68;;;3.60;;
65998;SDS011;52766;56.008;37.440;2023-08-07T15:43:52;8.30;;;5.30;;
65998;SDS011;52766;56.008;37.440;2023-08-07T15:46:51;6.38;;;4.03;;
65998;SDS011;52766;56.008;37.440;2023-08-07T16:03:59;6.18;;;3.88;;
65998;SDS011;52766;56.008;37.440;2023-08-07T16:13:43;9.73;;;3.70;;
65998;SDS011;52766;56.008;37.440;2023-08-07T16:19:12;8.20;;;3.00;;
65998;SDS011;52766;56.008;37.440;2023-08-07T16:22:38;7.30;;;2.80;;
65998;SDS011;52766;56.008;37.440;2023-08-07T16:31:48;8.07;;;3.47;;
65998;SDS011;52766;56.008;37.440;2023-08-07T16:48:00;6.30;;;3.55;;
65998;SDS011;52766;56.008;37.440;2023-08-07T17:09:44;11.07;;;4.90;;
65998;SDS011;52766;56.008;37.440;2023-08-07T17:24:58;7.82;;;3.78;;
65998;SDS011;52766;56.008;37.440;2023-08-07T17:59:24;5.22;;;3.33;;
65998;SDS011;52766;56.008;37.440;2023-08-07T18:08:55;8.05;;;3.67;;
65998;SDS011;52766;56.008;37.440;2023-08-07T18:11:52;5.07;;;3.35;;
65998;SDS011;52766;56.008;37.440;2023-08-07T18:14:45;6.95;;;4.10;;
65998;SDS011;52766;56.008;37.440;2023-08-07T18:18:15;6.00;;;4.00;;
65998;SDS011;52766;56.008;37.440;2023-08-07T18:21:24;14.85;;;4.32;;
65998;SDS011;52766;56.008;37.440;2023-08-07T18:24:31;6.70;;;4.00;;
65998;SDS011;52766;56.008;37.440;2023-08-07T18:28:07;7.82;;;4.15;;
65998;SDS011;52766;56.008;37.440;2023-08-07T18:31:54;7.68;;;3.92;;
65998;SDS011;52766;56.008;37.440;2023-08-07T18:34:38;4.82;;;3.80;;
65998;SDS011;52766;56.008;37.440;2023-08-07T18:38:08;6.55;;;4.10;;
65998;SDS011;52766;56.008;37.440;2023-08-07T18:40:57;7.55;;;3.67;;
65998;SDS011;52766;56.008;37.440;2023-08-07T18:44:11;7.82;;;4.00;;
65998;SDS011;52766;56.008;37.440;2023-08-07T18:47:32;5.50;;;3.90;;
65998;SDS011;52766;56.008;37.440;2023-08-07T18:50:30;7.97;;;4.32;;
65998;SDS011;52766;56.008;37.440;2023-08-07T18:52:59;6.95;;;4.60;;
65998;SDS011;52766;56.008;37.440;2023-08-07T18:55:38;6.82;;;3.95;;
65998;SDS011;52766;56.008;37.440;2023-08-07T18:58:57;7.35;;;4.20;;
65998;SDS011;52766;56.008;37.440;2023-08-07T19:02:17;5.10;;;3.75;;
65998;SDS011;52766;56.008;37.440;2023-08-07T19:04:51;7.75;;;4.20;;
65998;SDS011;52766;56.008;37.440;2023-08-07T19:07:43;7.35;;;3.80;;
65998;SDS011;52766;56.008;37.440;2023-08-07T19:10:27;6.70;;;4.15;;
65998;SDS011;52766;56.008;37.440;2023-08-07T19:13:01;7.35;;;4.05;;
65998;SDS011;52766;56.008;37.440;2023-08-07T19:15:33;8.48;;;4.10;;
65998;SDS011;52766;56.008;37.440;2023-08-07T19:18:04;8.65;;;4.18;;
65998;SDS011;52766;56.008;37.440;2023-08-07T19:20:42;8.55;;;4.10;;
65998;SDS011;52766;56.008;37.440;2023-08-07T19:23:24;9.05;;;4.82;;
65998;SDS011;52766;56.008;37.440;2023-08-07T19:26:08;5.32;;;3.92;;
65998;SDS011;52766;56.008;37.440;2023-08-07T19:29:09;7.40;;;4.13;;
65998;SDS011;52766;56.008;37.440;2023-08-07T19:31:38;12.75;;;4.25;;
65998;SDS011;52766;56.008;37.440;2023-08-07T19:34:33;9.38;;;4.20;;
65998;SDS011;52766;56.008;37.440;2023-08-07T19:37:05;6.35;;;3.90;;
65998;SDS011;52766;56.008;37.440;2023-08-07T19:39:35;6.25;;;4.20;;
65998;SDS011;52766;56.008;37.440;2023-08-07T19:42:09;5.75;;;3.85;;
65998;SDS011;52766;56.008;37.440;2023-08-07T19:44:38;6.03;;;4.10;;
65998;SDS011;52766;56.008;37.440;2023-08-07T19:47:12;7.00;;;4.00;;
65998;SDS011;52766;56.008;37.440;2023-08-07T19:49:40;7.53;;;4.25;;
65998;SDS011;52766;56.008;37.440;2023-08-07T19:52:09;7.40;;;4.28;;
65998;SDS011;52766;56.008;37.440;2023-08-07T19:54:40;8.30;;;4.15;;
65998;SDS011;52766;56.008;37.440;2023-08-07T19:57:09;9.23;;;4.07;;
65998;SDS011;52766;56.008;37.440;2023-08-07T19:59:38;8.95;;;4.80;;
65998;SDS011;52766;56.008;37.440;2023-08-07T20:02:09;7.05;;;3.78;;
65998;SDS011;52766;56.008;37.440;2023-08-07T20:04:46;8.13;;;4.10;;
65998;SDS011;52766;56.008;37.440;2023-08-07T20:10:14;7.50;;;5.55;;
65998;SDS011;52766;56.008;37.440;2023-08-07T20:12:52;8.52;;;5.03;;
65998;SDS011;52766;56.008;37.440;2023-08-07T20:15:21;8.02;;;4.65;;
65998;SDS011;52766;56.008;37.440;2023-08-07T20:17:58;6.70;;;4.40;;
65998;SDS011;52766;56.008;37.440;2023-08-07T20:20:34;6.80;;;4.10;;
65998;SDS011;52766;56.008;37.440;2023-08-07T20:23:06;6.20;;;3.90;;
65998;SDS011;52766;56.008;37.440;2023-08-07T20:25:40;7.80;;;3.65;;
65998;SDS011;52766;56.008;37.440;2023-08-07T20:28:12;5.20;;;3.80;;
65998;SDS011;52766;56.008;37.440;2023-08-07T20:30:44;6.13;;;4.35;;
65998;SDS011;52766;56.008;37.440;2023-08-07T20:33:20;8.18;;;4.47;;
65998;SDS011;52766;56.008;37.440;2023-08-07T20:35:49;8.48;;;4.43;;
65998;SDS011;52766;56.008;37.440;2023-08-07T20:38:24;6.75;;;4.60;;
65998;SDS011;52766;56.008;37.440;2023-08-07T20:40:59;8.68;;;5.22;;
65998;SDS011;52766;56.008;37.440;2023-08-07T20:43:37;8.10;;;5.22;;
65998;SDS011;52766;56.008;37.440;2023-08-07T20:46:15;11.13;;;4.95;;
65998;SDS011;52766;56.008;37.440;2023-08-07T20:48:43;11.43;;;5.13;;
65998;SDS011;52766;56.008;37.440;2023-08-07T20:51:19;10.35;;;5.20;;
65998;SDS011;52766;56.008;37.440;2023-08-07T20:53:47;10.82;;;5.30;;
65998;SDS011;52766;56.008;37.440;2023-08-07T20:56:20;8.52;;;5.43;;
65998;SDS011;52766;56.008;37.440;2023-08-07T20:58:46;8.10;;;5.20;;
65998;SDS011;52766;56.008;37.440;2023-08-07T21:01:22;9.13;;;5.22;;
65998;SDS011;52766;56.008;37.440;2023-08-07T21:03:48;10.38;;;5.40;;
65998;SDS011;52766;56.008;37.440;2023-08-07T21:06:19;7.20;;;4.80;;
65998;SDS011;52766;56.008;37.440;2023-08-07T21:08:53;7.70;;;5.10;;
65998;SDS011;52766;56.008;37.440;2023-08-07T21:11:21;7.93;;;4.95;;
65998;SDS011;52766;56.008;37.440;2023-08-07T21:14:00;7.53;;;4.78;;
65998;SDS011;52766;56.008;37.440;2023-08-07T21:16:36;8.32;;;5.18;;
65998;SDS011;52766;56.008;37.440;2023-08-07T21:19:06;9.27;;;4.97;;
65998;SDS011;52766;56.008;37.440;2023-08-07T21:21:36;10.85;;;4.95;;
65998;SDS011;52766;56.008;37.440;2023-08-07T21:24:01;8.07;;;4.53;;
65998;SDS011;52766;56.008;37.440;2023-08-07T21:26:31;6.50;;;4.35;;
65998;SDS011;52766;56.008;37.440;2023-08-07T21:28:57;6.63;;;4.47;;
65998;SDS011;52766;56.008;37.440;2023-08-07T21:31:29;8.68;;;5.10;;
65998;SDS011;52766;56.008;37.440;2023-08-07T21:34:08;7.03;;;5.15;;
65998;SDS011;52766;56.008;37.440;2023-08-07T21:36:53;7.13;;;4.78;;
65998;SDS011;52766;56.008;37.440;2023-08-07T21:39:27;6.90;;;4.43;;
65998;SDS011;52766;56.008;37.440;2023-08-07T21:41:57;6.22;;;4.35;;
65998;SDS011;52766;56.008;37.440;2023-08-07T21:44:52;9.32;;;4.88;;
65998;SDS011;52766;56.008;37.440;2023-08-07T21:47:21;6.82;;;4.50;;
65998;SDS011;52766;56.008;37.440;2023-08-07T21:50:20;5.50;;;4.13;;
65998;SDS011;52766;56.008;37.440;2023-08-07T21:53:13;6.22;;;4.18;;
65998;SDS011;52766;56.008;37.440;2023-08-07T21:55:40;5.70;;;4.05;;
65998;SDS011;52766;56.008;37.440;2023-08-07T21:58:20;7.35;;;4.72;;
65998;SDS011;52766;56.008;37.440;2023-08-07T22:00:47;8.27;;;4.60;;
65998;SDS011;52766;56.008;37.440;2023-08-07T22:03:25;7.32;;;4.30;;
65998;SDS011;52766;56.008;37.440;2023-08-07T22:05:57;8.25;;;4.38;;
65998;SDS011;52766;56.008;37.440;2023-08-07T22:08:27;6.93;;;4.18;;
65998;SDS011;52766;56.008;37.440;2023-08-07T22:10:55;7.22;;;3.97;;
65998;SDS011;52766;56.008;37.440;2023-08-07T22:13:55;7.32;;;4.30;;
65998;SDS011;52766;56.008;37.440;2023-08-07T22:16:26;5.80;;;3.90;;
65998;SDS011;52766;56.008;37.440;2023-08-07T22:18:53;10.15;;;4.57;;
65998;SDS011;52766;56.008;37.440;2023-08-07T22:21:21;6.00;;;3.67;;
65998;SDS011;52766;56.008;37.440;2023-08-07T22:23:48;6.18;;;4.25;;
65998;SDS011;52766;56.008;37.440;2023-08-07T22:26:16;5.18;;;4.10;;
65998;SDS011;52766;56.008;37.440;2023-08-07T22:28:43;6.57;;;3.80;;
65998;SDS011;52766;56.008;37.440;2023-08-07T22:31:10;7.50;;;4.00;;
65998;SDS011;52766;56.008;37.440;2023-08-07T22:33:44;7.20;;;3.83;;
65998;SDS011;52766;56.008;37.440;2023-08-07T22:36:14;5.60;;;3.90;;
65998;SDS011;52766;56.008;37.440;2023-08-07T22:38:46;5.75;;;3.83;;
65998;SDS011;52766;56.008;37.440;2023-08-07T22:41:14;6.55;;;3.92;;
65998;SDS011;52766;56.008;37.440;2023-08-07T22:43:43;5.65;;;3.65;;
65998;SDS011;52766;56.008;37.440;2023-08-07T22:46:13;6.78;;;3.63;;
65998;SDS011;52766;56.008;37.440;2023-08-07T22:48:45;6.22;;;3.92;;
65998;SDS011;52766;56.008;37.440;2023-08-07T22:51:15;5.90;;;3.65;;
65998;SDS011;52766;56.008;37.440;2023-08-07T22:53:45;5.78;;;3.95;;
65998;SDS011;52766;56.008;37.440;2023-08-07T22:56:16;6.85;;;3.47;;
65998;SDS011;52766;56.008;37.440;2023-08-07T22:58:44;4.85;;;3.03;;
65998;SDS011;52766;56.008;37.440;2023-08-07T23:01:13;7.75;;;3.63;;
65998;SDS011;52766;56.008;37.440;2023-08-07T23:03:45;6.53;;;3.50;;
65998;SDS011;52766;56.008;37.440;2023-08-07T23:06:18;8.20;;;3.85;;
65998;SDS011;52766;56.008;37.440;2023-08-07T23:08:45;6.43;;;3.97;;
65998;SDS011;52766;56.008;37.440;2023-08-07T23:13:41;5.25;;;3.55;;
65998;SDS011;52766;56.008;37.440;2023-08-07T23:16:07;5.13;;;3.20;;
65998;SDS011;52766;56.008;37.440;2023-08-07T23:18:41;5.88;;;3.70;;
65998;SDS011;52766;56.008;37.440;2023-08-07T23:21:10;6.40;;;3.47;;
65998;SDS011;52766;56.008;37.440;2023-08-07T23:23:37;9.80;;;3.85;;
65998;SDS011;52766;56.008;37.440;2023-08-07T23:26:03;9.35;;;3.40;;
65998;SDS011;52766;56.008;37.440;2023-08-07T23:28:30;5.22;;;3.70;;
65998;SDS011;52766;56.008;37.440;2023-08-07T23:30:56;6.22;;;3.35;;
65998;SDS011;52766;56.008;37.440;2023-08-07T23:33:24;5.45;;;3.45;;
65998;SDS011;52766;56.008;37.440;2023-08-07T23:35:51;5.45;;;3.45;;
65998;SDS011;52766;56.008;37.440;2023-08-07T23:38:17;5.15;;;2.90;;
65998;SDS011;52766;56.008;37.440;2023-08-07T23:40:44;6.97;;;3.42;;
65998;SDS011;52766;56.008;37.440;2023-08-07T23:43:12;5.90;;;3.60;;
65998;SDS011;52766;56.008;37.440;2023-08-07T23:45:39;7.43;;;3.65;;